createdAt,value
2022-08-12T00:02:45.644Z,79.40
2022-08-12T00:05:34.028Z,80.10
2022-08-12T00:08:30.948Z,80.60
2022-08-12T00:11:22.835Z,80.10
2022-08-12T00:14:08.482Z,80.40
2022-08-12T00:16:56.375Z,79.70
2022-08-12T00:19:42.516Z,80.30
2022-08-12T00:22:29.147Z,80.30
2022-08-12T00:25:17.991Z,80.50
2022-08-12T00:28:05.271Z,81.40
2022-08-12T00:30:51.033Z,81.70
2022-08-12T00:33:52.518Z,81.60
2022-08-12T00:36:44.976Z,81.80
2022-08-12T00:39:31.606Z,81.80
2022-08-12T00:42:11.399Z,81.90
2022-08-12T00:44:42.412Z,82.40
2022-08-12T00:47:24.699Z,82.00
2022-08-12T00:49:56.307Z,82.30
2022-08-12T00:52:25.331Z,82.30
2022-08-12T00:54:57.027Z,82.40
2022-08-12T00:57:28.803Z,82.60
2022-08-12T00:59:59.243Z,83.10
2022-08-12T01:02:29.009Z,83.20
2022-08-12T01:05:18.708Z,83.40
2022-08-12T01:08:06.234Z,83.30
2022-08-12T01:10:55.325Z,83.50
2022-08-12T01:13:24.291Z,83.70
2022-08-12T01:15:55.032Z,83.70
2022-08-12T01:18:24.784Z,84.30
2022-08-12T01:21:07.683Z,84.70
2022-08-12T01:24:28.095Z,84.80
2022-08-12T01:26:59.488Z,85.40
2022-08-12T01:29:32.931Z,85.30
2022-08-12T01:32:08.077Z,85.50
2022-08-12T01:34:38.475Z,84.80
2022-08-12T01:37:10.460Z,85.30
2022-08-12T01:40:33.881Z,85.50
2022-08-12T01:42:46.385Z,86.00
2022-08-12T01:45:14.905Z,85.70
2022-08-12T01:47:55.031Z,85.50
2022-08-12T01:50:33.243Z,85.80
2022-08-12T01:53:08.310Z,85.40
2022-08-12T01:55:38.891Z,86.10
2022-08-12T01:58:28.914Z,85.50
2022-08-12T02:01:01.776Z,85.80
2022-08-12T02:04:09.622Z,86.30
2022-08-12T02:07:11.125Z,86.30
2022-08-12T02:10:50.564Z,86.20
2022-08-12T02:13:08.770Z,86.20
2022-08-12T02:15:46.261Z,86.60
2022-08-12T02:18:26.061Z,86.60
2022-08-12T02:21:02.263Z,87.50
2022-08-12T02:23:31.923Z,88.00
2022-08-12T02:26:04.511Z,88.10
2022-08-12T02:28:33.118Z,88.50
2022-08-12T02:31:08.883Z,88.70
2022-08-12T02:33:38.106Z,88.00
2022-08-12T02:36:07.193Z,88.00
2022-08-12T02:38:37.066Z,88.20
2022-08-12T02:41:06.950Z,88.30
2022-08-12T02:43:38.885Z,88.70
2022-08-12T02:46:14.935Z,88.30
2022-08-12T02:48:49.994Z,88.30
2022-08-12T02:51:20.715Z,88.50
2022-08-12T02:54:02.909Z,88.60
2022-08-12T02:56:37.501Z,88.50
2022-08-12T02:59:11.913Z,89.10
2022-08-12T03:01:47.963Z,89.40
2022-08-12T03:04:24.402Z,89.40
2022-08-12T03:07:00.751Z,89.50
2022-08-12T03:09:47.330Z,89.80
2022-08-12T03:12:22.592Z,89.70
2022-08-12T03:14:53.057Z,90.10
2022-08-12T03:17:28.866Z,89.70
2022-08-12T03:20:09.403Z,90.10
2022-08-12T03:22:41.620Z,90.20
2022-08-12T03:25:17.172Z,90.40
2022-08-12T03:27:51.826Z,90.50
2022-08-12T03:30:21.117Z,90.40
2022-08-12T03:32:52.231Z,90.70
2022-08-12T03:35:40.754Z,90.70
2022-08-12T03:38:16.142Z,91.00
2022-08-12T03:41:23.547Z,91.20
2022-08-12T03:44:17.664Z,91.50
2022-08-12T03:47:07.909Z,91.70
2022-08-12T03:49:54.984Z,91.90
2022-08-12T03:52:40.759Z,92.20
2022-08-12T03:55:27.131Z,92.30
2022-08-12T03:58:13.035Z,92.60
2022-08-12T04:00:41.052Z,92.90
2022-08-12T04:03:30.597Z,93.00
2022-08-12T04:05:59.987Z,93.20
2022-08-12T04:08:28.972Z,93.40
2022-08-12T04:11:14.831Z,93.70
2022-08-12T04:13:42.817Z,93.90
2022-08-12T04:16:13.624Z,94.00
2022-08-12T04:18:42.412Z,94.00
2022-08-12T04:21:11.801Z,94.30
2022-08-12T04:23:47.773Z,94.50
2022-08-12T04:26:16.672Z,94.60
2022-08-12T04:28:44.829Z,94.60
2022-08-12T04:31:14.301Z,94.80
2022-08-12T04:33:43.380Z,94.50
2022-08-12T04:36:12.887Z,94.50
2022-08-12T04:38:41.537Z,94.30
2022-08-12T04:41:11.163Z,94.40
2022-08-12T04:43:54.584Z,94.40
2022-08-12T04:46:30.828Z,94.60
2022-08-12T04:49:03.201Z,94.60
2022-08-12T04:51:33.297Z,94.60
2022-08-12T04:54:02.729Z,94.70
2022-08-12T04:56:35.393Z,95.00
2022-08-12T04:59:04.393Z,95.10
2022-08-12T05:01:32.904Z,95.30
2022-08-12T05:04:02.821Z,95.30
2022-08-12T05:06:32.772Z,94.90
2022-08-12T05:09:01.372Z,94.60
2022-08-12T05:11:29.489Z,94.60
2022-08-12T05:14:00.238Z,94.10
2022-08-12T05:16:32.383Z,93.60
2022-08-12T05:19:01.150Z,93.60
2022-08-12T05:21:31.959Z,93.00
2022-08-12T05:24:00.335Z,92.70
2022-08-12T05:26:29.395Z,92.00
2022-08-12T05:28:57.461Z,91.90
2022-08-12T05:31:47.341Z,91.70
2022-08-12T05:34:15.566Z,91.60
2022-08-12T05:36:45.122Z,91.20
2022-08-12T05:39:13.342Z,90.80
2022-08-12T05:41:41.564Z,89.80
2022-08-12T05:44:12.700Z,88.90
2022-08-12T05:46:41.418Z,87.60
2022-08-12T05:49:09.497Z,86.60
2022-08-12T05:51:40.099Z,85.20
2022-08-12T05:54:11.212Z,84.20
2022-08-12T05:56:40.114Z,85.40
2022-08-12T05:59:09.362Z,84.40
2022-08-12T06:02:09.683Z,83.00
2022-08-12T06:04:25.705Z,82.00
2022-08-12T06:06:53.834Z,81.70
2022-08-12T06:09:23.428Z,81.70
2022-08-12T06:12:04.607Z,80.60
2022-08-12T06:14:36.503Z,80.90
2022-08-12T06:17:06.037Z,81.60
2022-08-12T06:20:26.683Z,80.80
2022-08-12T06:22:21.946Z,80.00
2022-08-12T06:24:52.919Z,79.60
2022-08-12T06:27:21.539Z,79.30
2022-08-12T06:30:09.882Z,79.30
2022-08-12T06:32:42.746Z,79.60
2022-08-12T06:35:27.056Z,80.10
2022-08-12T06:38:16.931Z,78.90
2022-08-12T06:41:05.111Z,78.90
2022-08-12T06:44:04.889Z,78.90
2022-08-12T06:46:23.013Z,79.50
2022-08-12T06:48:57.532Z,79.00
2022-08-12T06:51:26.383Z,78.90
2022-08-12T06:53:55.932Z,78.10
2022-08-12T06:56:45.864Z,77.90
2022-08-12T06:59:14.174Z,77.90
2022-08-12T07:01:50.759Z,78.40
2022-08-12T07:04:37.213Z,76.90
2022-08-12T07:07:07.075Z,76.90
2022-08-12T07:10:00.073Z,77.50
2022-08-12T07:12:26.978Z,77.10
2022-08-12T07:14:56.605Z,76.60
2022-08-12T07:17:24.562Z,76.30
2022-08-12T07:19:53.691Z,76.80
2022-08-12T07:22:23.296Z,76.30
2022-08-12T07:25:12.470Z,77.20
2022-08-12T07:27:42.827Z,74.70
2022-08-12T07:30:12.029Z,74.30
2022-08-12T07:32:40.099Z,74.30
2022-08-12T07:35:08.905Z,75.00
2022-08-12T07:37:42.350Z,73.70
2022-08-12T07:40:12.178Z,73.80
2022-08-12T07:42:43.654Z,73.50
2022-08-12T07:45:12.329Z,71.80
2022-08-12T07:47:43.206Z,73.30
2022-08-12T07:50:11.987Z,72.60
2022-08-12T07:52:42.809Z,72.50
2022-08-12T07:55:11.956Z,70.00
2022-08-12T07:57:55.886Z,70.40
2022-08-12T08:00:24.150Z,70.20
2022-08-12T08:02:53.427Z,70.50
2022-08-12T08:05:22.796Z,69.50
2022-08-12T08:07:53.276Z,69.80
2022-08-12T08:10:21.475Z,69.00
2022-08-12T08:12:58.160Z,70.30
2022-08-12T08:16:00.654Z,68.80
2022-08-12T08:18:26.754Z,68.00
2022-08-12T08:20:56.726Z,69.00
2022-08-12T08:23:56.256Z,68.70
2022-08-12T08:26:26.497Z,67.50
2022-08-12T08:28:55.862Z,64.50
2022-08-12T08:31:23.837Z,67.20
2022-08-12T08:34:05.390Z,66.50
2022-08-12T08:36:42.375Z,64.60
2022-08-12T08:39:11.770Z,65.50
2022-08-12T08:42:14.109Z,64.90
2022-08-12T08:44:49.811Z,64.00
2022-08-12T08:47:26.008Z,63.20
2022-08-12T08:49:57.416Z,63.10
2022-08-12T08:52:39.636Z,62.30
2022-08-12T08:55:10.352Z,61.30
2022-08-12T08:57:43.147Z,60.80
2022-08-12T09:00:16.799Z,59.00
2022-08-12T09:02:49.560Z,60.00
2022-08-12T09:05:27.372Z,59.20
2022-08-12T09:08:09.109Z,61.40
2022-08-12T09:10:54.271Z,61.00
2022-08-12T09:14:10.572Z,58.90
2022-08-12T09:16:20.189Z,58.20
2022-08-12T09:21:54.690Z,59.70
2022-08-12T09:26:59.013Z,59.00
2022-08-12T09:30:10.554Z,59.30
2022-08-12T09:32:57.089Z,57.10
2022-08-12T09:35:04.818Z,58.80
2022-08-12T09:37:58.154Z,58.20
2022-08-12T09:41:01.739Z,58.60
2022-08-12T09:43:34.660Z,58.40
2022-08-12T09:46:12.045Z,58.30
2022-08-12T09:48:56.338Z,56.70
2022-08-12T09:51:37.792Z,57.30
2022-08-12T09:54:35.229Z,58.90
2022-08-12T09:58:08.251Z,55.90
2022-08-12T10:00:15.655Z,56.00
2022-08-12T10:02:44.264Z,53.50
2022-08-12T10:05:20.530Z,53.90
2022-08-12T10:07:48.778Z,55.30
2022-08-12T10:10:24.419Z,53.40
2022-08-12T10:13:14.333Z,55.20
2022-08-12T10:16:02.551Z,52.70
2022-08-12T10:18:35.294Z,54.20
2022-08-12T10:21:08.662Z,55.50
2022-08-12T10:23:39.373Z,55.80
2022-08-12T10:26:37.922Z,54.40
2022-08-12T10:30:03.171Z,52.20
2022-08-12T10:33:02.248Z,53.70
2022-08-12T10:35:09.312Z,52.00
2022-08-12T10:38:34.720Z,51.40
2022-08-12T10:40:31.886Z,51.90
2022-08-12T10:43:18.607Z,52.60
2022-08-12T10:45:49.822Z,55.30
2022-08-12T10:48:33.678Z,54.10
2022-08-12T10:51:51.763Z,53.50
2022-08-12T10:54:00.809Z,51.50
2022-08-12T10:56:35.021Z,52.50
2022-08-12T10:59:05.209Z,54.60
2022-08-12T11:04:17.246Z,53.30
2022-08-12T11:04:41.382Z,52.60
2022-08-12T11:08:35.905Z,50.90
2022-08-12T11:10:02.453Z,50.60
2022-08-12T11:12:55.254Z,50.50
2022-08-12T11:15:24.407Z,52.10
2022-08-12T11:18:17.834Z,53.10
2022-08-12T11:20:48.038Z,52.90
